createdAt,value
2019-02-24T00:01:22.952Z,49.70
2019-02-24T00:03:54.748Z,49.70
2019-02-24T00:06:24.921Z,50.50
2019-02-24T00:08:56.416Z,49.80
2019-02-24T00:11:27.765Z,50.20
2019-02-24T00:13:59.111Z,49.50
2019-02-24T00:16:31.114Z,49.50
2019-02-24T00:19:01.271Z,49.30
2019-02-24T00:21:32.101Z,49.40
2019-02-24T00:24:02.733Z,49.30
2019-02-24T00:26:32.890Z,49.30
2019-02-24T00:29:05.115Z,49.20
2019-02-24T00:31:35.269Z,49.20
2019-02-24T00:34:07.093Z,49.30
2019-02-24T00:36:37.347Z,49.00
2019-02-24T00:39:07.484Z,50.00
2019-02-24T00:41:38.360Z,49.50
2019-02-24T00:44:08.763Z,49.40
2019-02-24T00:46:38.923Z,49.10
2019-02-24T00:49:09.438Z,49.30
2019-02-24T00:51:39.554Z,49.10
2019-02-24T00:54:09.955Z,49.20
2019-02-24T00:56:40.560Z,49.70
2019-02-24T00:59:10.868Z,49.80
2019-02-24T01:01:41.305Z,49.90
2019-02-24T01:04:11.541Z,49.90
2019-02-24T01:06:42.118Z,50.30
2019-02-24T01:09:15.540Z,50.40
2019-02-24T01:11:46.044Z,50.60
2019-02-24T01:14:16.298Z,50.70
2019-02-24T01:16:46.528Z,50.50
2019-02-24T01:19:16.648Z,50.80
2019-02-24T01:21:46.772Z,51.00
2019-02-24T01:24:17.507Z,51.10
2019-02-24T01:26:47.662Z,51.30
2019-02-24T01:29:18.264Z,51.50
2019-02-24T01:31:49.425Z,52.40
2019-02-24T01:34:20.135Z,52.50
2019-02-24T01:36:52.352Z,52.20
2019-02-24T01:39:22.740Z,52.80
2019-02-24T01:41:52.852Z,52.40
2019-02-24T01:44:23.294Z,52.60
2019-02-24T01:46:53.607Z,52.70
2019-02-24T01:49:24.142Z,52.70
2019-02-24T01:51:54.332Z,52.90
2019-02-24T01:54:24.901Z,53.00
2019-02-24T01:56:55.004Z,53.10
2019-02-24T01:59:25.500Z,53.30
2019-02-24T02:01:57.091Z,52.90
2019-02-24T02:04:27.637Z,53.50
2019-02-24T02:06:58.028Z,53.60
2019-02-24T02:09:30.313Z,53.60
2019-02-24T02:12:00.586Z,53.80
2019-02-24T02:14:32.025Z,54.00
2019-02-24T02:17:02.194Z,54.00
2019-02-24T02:19:32.433Z,54.20
2019-02-24T02:22:04.630Z,54.20
2019-02-24T02:24:36.136Z,54.30
2019-02-24T02:27:07.124Z,54.40
2019-02-24T02:29:38.806Z,53.90
2019-02-24T02:32:09.115Z,54.60
2019-02-24T02:34:41.141Z,54.90
2019-02-24T02:37:11.793Z,54.90
2019-02-24T02:39:42.122Z,55.10
2019-02-24T02:42:13.118Z,55.00
2019-02-24T02:44:44.266Z,54.90
2019-02-24T02:47:14.749Z,54.60
2019-02-24T02:49:44.915Z,55.00
2019-02-24T02:52:15.699Z,55.00
2019-02-24T02:54:46.056Z,55.10
2019-02-24T02:57:16.231Z,55.00
2019-02-24T02:59:46.593Z,54.90
2019-02-24T03:02:24.043Z,54.70
2019-02-24T03:04:48.705Z,54.80
2019-02-24T03:07:26.870Z,54.20
2019-02-24T03:09:57.090Z,54.70
2019-02-24T03:12:27.607Z,54.90
2019-02-24T03:15:00.256Z,54.80
2019-02-24T03:17:32.323Z,55.10
2019-02-24T03:20:02.432Z,55.00
2019-02-24T03:22:32.950Z,55.00
2019-02-24T03:25:03.080Z,55.00
2019-02-24T03:27:33.772Z,55.10
2019-02-24T03:30:03.995Z,55.00
2019-02-24T03:32:35.494Z,55.10
2019-02-24T03:35:05.768Z,55.00
2019-02-24T03:37:36.360Z,55.10
2019-02-24T03:40:06.515Z,55.10
2019-02-24T03:42:36.937Z,55.30
2019-02-24T03:45:07.547Z,55.10
2019-02-24T03:47:37.769Z,55.20
2019-02-24T03:50:08.009Z,55.30
2019-02-24T03:52:38.096Z,55.30
2019-02-24T03:55:08.738Z,55.00
2019-02-24T03:57:41.207Z,55.10
2019-02-24T04:00:11.326Z,55.20
2019-02-24T04:02:43.336Z,55.40
2019-02-24T04:05:15.046Z,55.80
2019-02-24T04:07:45.192Z,55.50
2019-02-24T04:10:15.390Z,55.00
2019-02-24T04:12:45.932Z,54.70
2019-02-24T04:15:16.066Z,55.10
2019-02-24T04:17:47.928Z,55.10
2019-02-24T04:20:18.182Z,55.50
2019-02-24T04:22:48.418Z,55.60
2019-02-24T04:25:19.091Z,55.40
2019-02-24T04:27:49.334Z,55.60
2019-02-24T04:30:19.964Z,55.50
2019-02-24T04:32:50.237Z,55.00
2019-02-24T04:35:20.819Z,55.40
2019-02-24T04:37:50.983Z,55.40
2019-02-24T04:40:21.598Z,55.50
2019-02-24T04:42:52.869Z,55.70
2019-02-24T04:45:23.655Z,55.70
2019-02-24T04:47:53.802Z,55.70
2019-02-24T04:50:24.004Z,55.70
2019-02-24T04:52:54.175Z,55.70
2019-02-24T04:55:24.765Z,55.70
2019-02-24T04:57:54.923Z,55.50
2019-02-24T05:00:27.203Z,55.60
2019-02-24T05:02:57.630Z,55.70
2019-02-24T05:05:27.781Z,55.70
2019-02-24T05:07:58.286Z,55.50
2019-02-24T05:10:28.559Z,55.70
2019-02-24T05:13:01.147Z,55.80
2019-02-24T05:15:31.491Z,55.80
2019-02-24T05:18:01.663Z,56.50
2019-02-24T05:20:32.238Z,56.00
2019-02-24T05:23:02.753Z,56.10
2019-02-24T05:25:36.496Z,54.90
2019-02-24T05:28:08.563Z,58.70
2019-02-24T05:30:38.966Z,56.00
2019-02-24T05:33:09.082Z,56.00
2019-02-24T05:35:39.835Z,55.90
2019-02-24T05:38:09.945Z,55.90
2019-02-24T05:40:40.351Z,55.80
2019-02-24T05:43:10.485Z,56.00
2019-02-24T05:45:41.117Z,56.10
2019-02-24T05:48:11.237Z,56.30
2019-02-24T05:50:41.674Z,56.30
2019-02-24T05:53:11.799Z,56.40
2019-02-24T05:55:42.247Z,57.30
2019-02-24T05:58:12.436Z,56.50
2019-02-24T06:00:42.966Z,56.20
2019-02-24T06:03:13.199Z,56.60
2019-02-24T06:05:43.404Z,56.90
2019-02-24T06:08:14.021Z,56.50
2019-02-24T06:10:46.108Z,56.70
2019-02-24T06:13:16.572Z,56.80
2019-02-24T06:15:48.050Z,56.70
2019-02-24T06:18:18.231Z,57.00
2019-02-24T06:20:49.895Z,56.80
2019-02-24T06:23:20.062Z,56.60
2019-02-24T06:25:50.467Z,57.00
2019-02-24T06:28:20.564Z,56.90
2019-02-24T06:30:51.369Z,56.70
2019-02-24T06:33:21.525Z,56.90
2019-02-24T06:35:52.509Z,56.90
2019-02-24T06:38:22.711Z,58.10
2019-02-24T06:40:53.240Z,56.90
2019-02-24T06:43:23.374Z,56.90
2019-02-24T06:45:53.911Z,56.40
2019-02-24T06:48:24.152Z,56.60
2019-02-24T06:51:00.477Z,56.10
2019-02-24T06:53:31.149Z,56.70
2019-02-24T06:56:01.779Z,56.40
2019-02-24T06:58:31.944Z,56.50
2019-02-24T07:01:02.403Z,56.20
2019-02-24T07:03:32.566Z,56.30
2019-02-24T07:06:03.028Z,56.20
2019-02-24T07:08:33.201Z,56.10
2019-02-24T07:11:03.434Z,56.10
2019-02-24T07:13:33.904Z,56.10
2019-02-24T07:16:04.044Z,55.80
2019-02-24T07:18:34.272Z,56.00
2019-02-24T07:21:04.945Z,56.40
2019-02-24T07:23:35.095Z,55.80
2019-02-24T07:26:06.687Z,55.70
2019-02-24T07:28:36.979Z,55.50
2019-02-24T07:31:07.090Z,54.90
2019-02-24T07:33:38.139Z,54.70
2019-02-24T07:36:08.862Z,54.40
2019-02-24T07:38:39.077Z,54.60
2019-02-24T07:41:09.639Z,53.80
2019-02-24T07:43:39.876Z,54.00
2019-02-24T07:46:11.779Z,53.50
2019-02-24T07:51:58.801Z,53.30
2019-02-24T07:54:29.464Z,53.00
2019-02-24T07:56:59.569Z,53.10
2019-02-24T07:59:29.741Z,53.10
2019-02-24T08:02:00.330Z,52.90
2019-02-24T08:04:30.522Z,52.70
2019-02-24T08:07:03.823Z,52.80
2019-02-24T08:09:34.482Z,52.50
2019-02-24T08:12:05.017Z,53.40
2019-02-24T08:14:35.137Z,52.60
2019-02-24T08:19:38.062Z,51.60
2019-02-24T08:22:08.240Z,51.30
2019-02-24T08:24:39.236Z,50.80
2019-02-24T08:27:10.315Z,50.70
2019-02-24T08:29:40.403Z,50.10
2019-02-24T08:32:12.531Z,49.90
2019-02-24T08:34:42.918Z,49.10
2019-02-24T08:37:13.168Z,49.20
2019-02-24T08:39:43.368Z,49.10
2019-02-24T08:42:13.688Z,49.10
2019-02-24T08:44:44.338Z,48.90
2019-02-24T08:49:44.472Z,48.40
2019-02-24T08:52:14.701Z,48.00
2019-02-24T08:54:45.278Z,48.60
2019-02-24T08:57:15.610Z,48.10
2019-02-24T08:59:45.812Z,48.10
2019-02-24T09:02:16.107Z,48.20
2019-02-24T09:04:46.341Z,48.00
2019-02-24T09:07:17.233Z,48.20
2019-02-24T09:09:47.585Z,47.90
2019-02-24T09:12:18.077Z,48.10
2019-02-24T09:14:48.833Z,49.20
2019-02-24T09:17:19.060Z,48.20
2019-02-24T09:19:50.099Z,47.90
2019-02-24T09:22:20.269Z,47.90
2019-02-24T09:24:50.855Z,47.50
2019-02-24T09:27:22.159Z,47.40
2019-02-24T09:29:52.420Z,47.60
2019-02-24T09:32:23.306Z,47.30
2019-02-24T09:34:53.549Z,47.80
2019-02-24T09:37:25.243Z,47.20
2019-02-24T09:39:55.527Z,47.30
2019-02-24T09:42:28.045Z,47.40
2019-02-24T09:44:58.103Z,48.00
2019-02-24T09:47:28.549Z,48.10
2019-02-24T09:50:00.253Z,48.60
2019-02-24T09:52:30.954Z,49.00
2019-02-24T09:55:01.356Z,49.30
2019-02-24T09:57:37.096Z,48.90
2019-02-24T10:00:08.961Z,49.20
2019-02-24T10:02:39.437Z,49.60
2019-02-24T10:05:10.918Z,49.00
2019-02-24T10:07:41.575Z,49.30
2019-02-24T10:10:13.355Z,49.80
2019-02-24T10:12:45.606Z,48.60
2019-02-24T10:15:17.057Z,48.70
2019-02-24T10:17:47.793Z,49.30
2019-02-24T10:20:18.037Z,48.40
2019-02-24T10:22:50.891Z,49.00
2019-02-24T10:25:21.148Z,48.70
2019-02-24T10:27:52.241Z,48.50
2019-02-24T10:30:22.592Z,46.80
2019-02-24T10:32:53.243Z,46.90
2019-02-24T10:35:24.234Z,46.50
2019-02-24T10:37:57.043Z,47.10
2019-02-24T10:40:27.319Z,46.60
2019-02-24T10:42:58.247Z,46.50
2019-02-24T10:45:28.542Z,47.20
2019-02-24T10:47:59.355Z,46.30
2019-02-24T10:50:30.294Z,46.30
2019-02-24T10:53:00.557Z,46.50
2019-02-24T10:55:30.824Z,46.10
2019-02-24T10:58:01.098Z,46.30
2019-02-24T11:00:31.652Z,46.50
2019-02-24T11:03:04.682Z,46.30
2019-02-24T11:05:35.074Z,45.90
2019-02-24T11:08:05.246Z,45.40
2019-02-24T11:10:35.791Z,45.90
2019-02-24T11:13:06.165Z,44.60
2019-02-24T11:15:38.147Z,45.00
2019-02-24T11:18:08.476Z,45.00
2019-02-24T11:20:39.186Z,44.60
2019-02-24T11:23:10.852Z,44.20
2019-02-24T11:25:41.357Z,43.40
2019-02-24T11:28:12.091Z,44.00
2019-02-24T11:30:42.362Z,43.30
2019-02-24T11:33:13.043Z,44.20
2019-02-24T11:38:13.083Z,44.30
2019-02-24T11:40:45.595Z,43.60
2019-02-24T11:43:16.719Z,42.80
2019-02-24T11:45:48.909Z,42.90
2019-02-24T11:48:19.561Z,43.10
2019-02-24T11:50:50.340Z,43.40
2019-02-24T11:53:21.811Z,43.00
2019-02-24T11:55:52.858Z,43.50
2019-02-24T11:58:23.885Z,43.30
2019-02-24T12:00:54.515Z,43.30
2019-02-24T12:03:46.838Z,43.80
2019-02-24T12:06:19.368Z,43.80
2019-02-24T12:08:53.250Z,44.30
2019-02-24T12:11:26.559Z,45.00
2019-02-24T12:16:29.522Z,44.30
2019-02-24T12:19:21.319Z,44.50
2019-02-24T12:21:55.269Z,43.40
2019-02-24T12:24:26.271Z,44.70
2019-02-24T12:26:57.371Z,43.40
2019-02-24T12:29:28.884Z,42.60
2019-02-24T12:35:05.667Z,60.30
2019-02-24T12:37:36.657Z,52.10
2019-02-24T12:40:07.846Z,51.50
2019-02-24T12:42:38.638Z,44.00
2019-02-24T12:45:09.462Z,44.00
2019-02-24T12:47:41.195Z,44.00
2019-02-24T12:50:12.696Z,41.70
2019-02-24T12:52:53.897Z,43.20
2019-02-24T12:55:31.925Z,43.00
2019-02-24T12:58:04.750Z,43.00
2019-02-24T13:00:35.440Z,42.60
2019-02-24T13:03:06.466Z,42.30
2019-02-24T13:05:37.216Z,42.80
2019-02-24T13:08:09.434Z,42.70
2019-02-24T13:10:40.397Z,42.50
2019-02-24T13:13:11.446Z,42.80
2019-02-24T13:15:41.867Z,42.00
2019-02-24T13:18:12.833Z,42.20
2019-02-24T13:20:46.426Z,42.40
2019-02-24T13:23:18.408Z,42.10
2019-02-24T13:25:51.488Z,41.90
2019-02-24T13:28:22.300Z,43.10
2019-02-24T13:30:54.728Z,42.50
2019-02-24T13:33:25.959Z,41.30
2019-02-24T13:36:01.823Z,42.70
2019-02-24T13:38:32.710Z,42.10
2019-02-24T13:41:03.143Z,41.80
2019-02-24T13:43:34.626Z,41.50
2019-02-24T13:46:07.633Z,42.00
2019-02-24T13:48:42.609Z,41.50
2019-02-24T13:51:14.196Z,39.90
2019-02-24T13:53:44.885Z,40.90
2019-02-24T13:56:15.757Z,40.70
2019-02-24T13:58:47.836Z,43.30
2019-02-24T14:01:19.996Z,41.50
2019-02-24T14:03:50.915Z,41.30
2019-02-24T14:06:22.477Z,41.10
2019-02-24T14:08:53.326Z,41.30
2019-02-24T14:11:26.967Z,41.50
2019-02-24T14:14:00.275Z,41.20
2019-02-24T14:16:30.873Z,41.60
2019-02-24T14:19:02.046Z,42.60
2019-02-24T14:21:49.932Z,41.50
2019-02-24T14:24:21.100Z,41.80
2019-02-24T14:26:51.579Z,41.70
2019-02-24T14:29:26.309Z,42.30
2019-02-24T14:31:56.700Z,42.60
2019-02-24T14:34:27.231Z,41.90
2019-02-24T14:36:59.470Z,42.50
2019-02-24T14:39:30.358Z,42.70
2019-02-24T14:42:04.093Z,42.50
2019-02-24T14:44:35.126Z,41.90
2019-02-24T14:47:05.570Z,41.60
2019-02-24T14:49:38.699Z,42.30
2019-02-24T14:52:14.494Z,41.30
2019-02-24T14:57:14.663Z,41.50
2019-02-24T14:59:46.149Z,41.80
2019-02-24T15:04:46.588Z,42.60
2019-02-24T15:07:17.666Z,42.10
2019-02-24T15:09:48.416Z,41.90
2019-02-24T15:12:18.986Z,42.90
2019-02-24T15:14:50.176Z,43.80
2019-02-24T15:17:20.688Z,43.40
2019-02-24T15:19:51.494Z,42.90
2019-02-24T15:22:21.948Z,42.50
2019-02-24T15:24:54.060Z,43.30
2019-02-24T15:27:26.109Z,43.80
2019-02-24T15:29:56.598Z,44.80
2019-02-24T15:32:28.043Z,42.70
2019-02-24T15:34:58.659Z,42.30
2019-02-24T15:37:29.558Z,41.40
2019-02-24T15:39:59.832Z,40.90
2019-02-24T15:42:30.861Z,40.30
2019-02-24T15:45:01.731Z,41.20
2019-02-24T15:47:32.971Z,40.80
2019-02-24T15:50:04.770Z,40.70
2019-02-24T15:52:35.766Z,40.40
2019-02-24T15:55:06.424Z,40.00
2019-02-24T15:57:38.564Z,39.70
2019-02-24T16:00:12.993Z,39.40
2019-02-24T16:02:44.827Z,40.10
2019-02-24T16:05:15.510Z,40.50
2019-02-24T16:07:47.820Z,40.80
2019-02-24T16:10:18.811Z,41.40
2019-02-24T16:12:49.795Z,41.20
2019-02-24T16:15:20.732Z,42.60
2019-02-24T16:17:51.305Z,42.70
2019-02-24T16:20:23.464Z,43.10
2019-02-24T16:22:54.320Z,42.90
2019-02-24T16:25:26.788Z,44.00
2019-02-24T16:27:58.019Z,42.80
2019-02-24T16:30:33.029Z,43.50
2019-02-24T16:33:10.572Z,43.00
2019-02-24T16:35:39.066Z,43.10
2019-02-24T16:38:11.078Z,43.80
2019-02-24T16:40:43.522Z,44.40
2019-02-24T16:43:14.033Z,44.80
2019-02-24T16:48:16.964Z,46.90
2019-02-24T16:50:47.870Z,45.90
2019-02-24T16:53:19.204Z,46.10
2019-02-24T16:55:53.461Z,46.70
2019-02-24T16:58:24.390Z,46.40
2019-02-24T17:00:56.422Z,47.30
2019-02-24T17:06:26.155Z,47.60
2019-02-24T17:09:01.339Z,49.90
2019-02-24T17:11:40.530Z,51.30
2019-02-24T17:14:11.539Z,52.60
2019-02-24T17:16:44.287Z,51.60
2019-02-24T17:19:15.117Z,51.90
2019-02-24T17:21:46.268Z,53.20
2019-02-24T17:24:17.570Z,52.60
2019-02-24T17:26:51.176Z,49.20
2019-02-24T17:29:21.655Z,50.70
2019-02-24T17:31:53.586Z,48.50
2019-02-24T17:34:24.525Z,50.70
2019-02-24T17:36:56.276Z,49.50
2019-02-24T17:39:26.877Z,48.90
2019-02-24T17:41:58.383Z,49.50
2019-02-24T17:44:29.269Z,48.70
2019-02-24T17:47:00.527Z,49.60
2019-02-24T17:49:31.008Z,49.30
2019-02-24T17:52:01.700Z,49.30
2019-02-24T17:54:32.460Z,46.70
2019-02-24T17:57:04.211Z,46.40
2019-02-24T17:59:40.679Z,44.80
2019-02-24T18:02:30.091Z,44.90
2019-02-24T18:05:02.243Z,45.80
2019-02-24T18:07:33.294Z,45.80
2019-02-24T18:10:05.854Z,45.30
2019-02-24T18:12:41.703Z,46.40
2019-02-24T18:15:23.460Z,46.40
2019-02-24T18:17:55.643Z,46.90
2019-02-24T18:20:26.734Z,45.80
2019-02-24T18:22:57.843Z,45.40
2019-02-24T18:25:30.285Z,44.30
2019-02-24T18:28:00.757Z,44.10
2019-02-24T18:33:02.284Z,46.30
2019-02-24T18:35:34.486Z,46.00
2019-02-24T18:38:11.673Z,46.30
2019-02-24T18:40:42.821Z,47.00
2019-02-24T18:43:13.754Z,47.00
2019-02-24T18:45:44.103Z,47.00
2019-02-24T18:48:15.235Z,47.20
2019-02-24T18:50:48.947Z,47.80
2019-02-24T18:53:38.736Z,47.80
2019-02-24T18:56:11.220Z,47.90
2019-02-24T18:59:07.300Z,47.70
2019-02-24T19:04:58.068Z,49.10
2019-02-24T19:07:28.960Z,48.50
2019-02-24T19:10:02.396Z,49.00
2019-02-24T19:16:10.251Z,50.50
2019-02-24T19:40:34.346Z,49.00
2019-02-24T19:43:28.176Z,48.80
2019-02-24T19:49:21.831Z,47.90
2019-02-24T19:55:16.271Z,46.90
2019-02-24T19:58:03.981Z,46.20
2019-02-24T20:00:43.668Z,45.60
2019-02-24T20:03:26.900Z,45.50
2019-02-24T20:06:23.840Z,45.40
2019-02-24T20:08:56.508Z,46.40
2019-02-24T20:11:28.851Z,45.90
2019-02-24T20:13:59.377Z,44.90
2019-02-24T20:16:29.792Z,45.70
2019-02-24T20:19:00.493Z,46.10
2019-02-24T20:21:32.288Z,45.60
2019-02-24T20:24:02.875Z,45.60
2019-02-24T20:26:33.320Z,46.00
2019-02-24T20:29:03.925Z,46.00
2019-02-24T20:31:35.656Z,46.80
2019-02-24T20:34:06.366Z,47.20
2019-02-24T20:36:39.611Z,46.90
2019-02-24T20:39:10.557Z,46.50
2019-02-24T20:41:43.843Z,46.60
2019-02-24T20:44:16.987Z,47.10
2019-02-24T20:46:49.029Z,46.70
2019-02-24T20:49:20.046Z,47.70
2019-02-24T20:51:50.583Z,46.10
2019-02-24T20:54:21.509Z,47.10
2019-02-24T20:56:52.155Z,46.60
2019-02-24T20:59:23.044Z,46.20
2019-02-24T21:01:53.707Z,47.50
2019-02-24T21:04:26.225Z,48.10
2019-02-24T21:06:56.613Z,48.10
2019-02-24T21:11:59.386Z,46.50
2019-02-24T21:14:30.619Z,46.60
2019-02-24T21:17:00.995Z,46.70
2019-02-24T21:19:31.502Z,47.40
2019-02-24T21:22:01.865Z,46.90
2019-02-24T21:24:32.385Z,46.00
2019-02-24T21:27:03.920Z,46.50
2019-02-24T21:29:34.842Z,47.00
2019-02-24T21:32:05.371Z,47.00
2019-02-24T21:34:35.709Z,47.20
2019-02-24T21:37:06.738Z,48.10
2019-02-24T21:39:38.613Z,46.90
2019-02-24T21:42:10.168Z,46.50
2019-02-24T21:44:41.552Z,47.00
2019-02-24T21:47:27.913Z,46.70
2019-02-24T21:50:00.531Z,48.00
2019-02-24T21:52:32.073Z,47.40
2019-02-24T21:55:03.120Z,48.10
2019-02-24T21:57:33.511Z,48.30
2019-02-24T22:00:04.105Z,49.10
2019-02-24T22:02:34.631Z,48.50
2019-02-24T22:05:05.762Z,48.10
2019-02-24T22:07:36.189Z,48.40
2019-02-24T22:10:07.476Z,48.50
2019-02-24T22:12:38.638Z,48.40
2019-02-24T22:15:12.813Z,48.70
2019-02-24T22:17:43.756Z,49.00
2019-02-24T22:20:15.805Z,48.60
2019-02-24T22:22:46.129Z,48.60
2019-02-24T22:25:16.857Z,48.30
2019-02-24T22:27:50.363Z,48.20
2019-02-24T22:30:22.012Z,48.50
2019-02-24T22:32:53.580Z,48.30
2019-02-24T22:35:24.239Z,48.70
2019-02-24T22:37:56.477Z,48.20
2019-02-24T22:40:28.124Z,48.10
2019-02-24T22:43:00.094Z,48.10
2019-02-24T22:45:32.674Z,48.50
2019-02-24T22:48:03.423Z,48.20
2019-02-24T22:50:34.661Z,48.70
2019-02-24T22:53:05.663Z,49.70
2019-02-24T22:55:36.226Z,49.40
2019-02-24T22:58:07.050Z,49.40
2019-02-24T23:01:10.047Z,49.70
2019-02-24T23:03:44.873Z,50.00
2019-02-24T23:06:16.329Z,49.80
2019-02-24T23:08:47.129Z,50.10
2019-02-24T23:11:17.906Z,50.30
2019-02-24T23:13:49.646Z,49.90
2019-02-24T23:16:20.293Z,50.80
2019-02-24T23:18:51.132Z,50.60
2019-02-24T23:21:22.271Z,50.30
2019-02-24T23:23:57.829Z,50.60
2019-02-24T23:26:29.460Z,50.90
2019-02-24T23:29:00.496Z,51.20
2019-02-24T23:31:31.576Z,52.00
2019-02-24T23:34:01.964Z,51.30
2019-02-24T23:36:32.403Z,51.10
2019-02-24T23:39:05.701Z,51.10
2019-02-24T23:41:38.289Z,51.20
2019-02-24T23:44:08.620Z,51.60
2019-02-24T23:46:39.130Z,51.60
2019-02-24T23:49:09.740Z,51.80
2019-02-24T23:51:40.232Z,51.70
2019-02-24T23:54:11.956Z,51.80
2019-02-24T23:56:42.366Z,52.30
2019-02-24T23:59:14.683Z,52.20
